Time;durP1;ratioP1;P1;durP2;ratioP2;P2;SDS_P1;SDS_P2;PMS_P1;PMS_P2;Temp;Humidity;BMP_temperature;BMP_pressure;BME280_temperature;BME280_humidity;BME280_pressure;Samples;Min_cycle;Max_cycle;Signal;HPM_P1;HPM_P2
2023/01/09 00:01:39;;;;;;;3.55;1.52;;;;;;;;;;5050859;28;20079;-62
2023/01/09 00:04:06;;;;;;;3.75;1.55;;;;;;;;;;5044700;28;20499;-62
2023/01/09 00:06:32;;;;;;;3.42;1.42;;;;;;;;;;5043004;28;20124;-62
2023/01/09 00:08:58;;;;;;;3.70;1.70;;;;;;;;;;5032960;28;20108;-62
2023/01/09 00:11:24;;;;;;;4.50;1.50;;;;;;;;;;5040646;28;20045;-62
2023/01/09 00:13:50;;;;;;;4.22;1.75;;;;;;;;;;5052913;28;20032;-62
2023/01/09 00:16:16;;;;;;;3.70;1.70;;;;;;;;;;5051724;28;20041;-62
2023/01/09 00:18:42;;;;;;;4.22;1.70;;;;;;;;;;5042228;28;20091;-62
2023/01/09 00:21:09;;;;;;;8.80;2.08;;;;;;;;;;5046027;28;20484;-62
2023/01/09 00:23:36;;;;;;;3.90;1.60;;;;;;;;;;5038300;28;20591;-62
2023/01/09 00:26:06;;;;;;;4.43;1.90;;;;;;;;;;5042568;28;20402;-62
2023/01/09 00:28:32;;;;;;;4.63;2.20;;;;;;;;;;5039756;28;20491;-61
2023/01/09 00:30:59;;;;;;;3.53;1.85;;;;;;;;;;5045517;28;20040;-62
2023/01/09 00:33:28;;;;;;;6.00;2.40;;;;;;;;;;5047455;28;20036;-62
2023/01/09 00:35:54;;;;;;;3.92;2.30;;;;;;;;;;5051755;28;20075;-62
2023/01/09 00:38:20;;;;;;;4.55;2.30;;;;;;;;;;5042904;28;20073;-61
2023/01/09 00:40:46;;;;;;;3.75;2.10;;;;;;;;;;5045974;28;20041;-63
2023/01/09 00:43:12;;;;;;;6.05;2.80;;;;;;;;;;5049660;28;20040;-62
2023/01/09 00:45:38;;;;;;;8.27;2.33;;;;;;;;;;5052342;28;20044;-62
2023/01/09 00:48:08;;;;;;;5.93;2.22;;;;;;;;;;5050218;28;20040;-62
2023/01/09 00:50:35;;;;;;;3.30;1.58;;;;;;;;;;5042680;28;20044;-62
2023/01/09 00:53:06;;;;;;;3.88;1.67;;;;;;;;;;5047107;28;20044;-62
2023/01/09 00:55:32;;;;;;;2.70;1.60;;;;;;;;;;5046772;28;20037;-63
2023/01/09 00:57:58;;;;;;;3.35;1.60;;;;;;;;;;5039493;28;20039;-62
2023/01/09 01:00:24;;;;;;;4.57;1.55;;;;;;;;;;5041302;28;20496;-62
2023/01/09 01:02:50;;;;;;;6.35;1.27;;;;;;;;;;5043726;28;20041;-62
2023/01/09 01:08:01;;;;;;;1.73;0.93;;;;;;;;;;5044679;28;20037;-62
2023/01/09 01:10:27;;;;;;;3.78;1.40;;;;;;;;;;5048960;28;20037;-62
2023/01/09 01:12:53;;;;;;;2.05;1.35;;;;;;;;;;5041982;28;20045;-62
2023/01/09 01:15:19;;;;;;;2.63;1.30;;;;;;;;;;5044268;28;20076;-62
2023/01/09 01:17:46;;;;;;;2.83;1.00;;;;;;;;;;5041366;28;20041;-62
2023/01/09 01:20:13;;;;;;;2.45;1.48;;;;;;;;;;5044653;28;20411;-62
2023/01/09 01:22:42;;;;;;;3.35;1.30;;;;;;;;;;5035834;28;20502;-61
2023/01/09 01:25:09;;;;;;;2.80;1.50;;;;;;;;;;5035493;28;20048;-61
2023/01/09 01:27:35;;;;;;;2.90;1.88;;;;;;;;;;5049920;28;20056;-62
2023/01/09 01:30:01;;;;;;;2.45;1.77;;;;;;;;;;5037275;28;20033;-62
2023/01/09 01:32:27;;;;;;;7.15;2.58;;;;;;;;;;5042292;28;20036;-62
2023/01/09 01:34:53;;;;;;;4.13;2.13;;;;;;;;;;5050267;28;20068;-62
2023/01/09 01:37:20;;;;;;;3.95;2.53;;;;;;;;;;5049293;28;20126;-61
2023/01/09 01:39:46;;;;;;;6.47;3.00;;;;;;;;;;5046998;28;20048;-61
2023/01/09 01:42:13;;;;;;;4.78;2.75;;;;;;;;;;5039574;28;20029;-61
2023/01/09 01:44:56;;;;;;;5.07;3.20;;;;;;;;;;5042927;28;20044;-62
2023/01/09 01:47:24;;;;;;;6.63;3.40;;;;;;;;;;5042118;28;20048;-62
2023/01/09 01:49:51;;;;;;;7.70;3.08;;;;;;;;;;5034145;28;20040;-62
2023/01/09 01:52:18;;;;;;;5.10;3.28;;;;;;;;;;5032987;28;20040;-62
2023/01/09 01:54:45;;;;;;;4.25;2.83;;;;;;;;;;5030613;28;20041;-61
2023/01/09 01:57:11;;;;;;;4.38;2.65;;;;;;;;;;5034424;28;20041;-62
2023/01/09 01:59:48;;;;;;;5.25;2.72;;;;;;;;;;5032838;28;20120;-62
2023/01/09 02:02:15;;;;;;;2.83;2.08;;;;;;;;;;5045994;28;20071;-62
2023/01/09 02:04:41;;;;;;;3.95;2.20;;;;;;;;;;5042143;28;20158;-61
2023/01/09 02:07:09;;;;;;;6.47;2.30;;;;;;;;;;5046797;28;20069;-62
2023/01/09 02:09:35;;;;;;;4.05;1.60;;;;;;;;;;5033820;28;20147;-62
2023/01/09 02:12:01;;;;;;;2.53;1.70;;;;;;;;;;5050206;28;20048;-62
2023/01/09 02:14:28;;;;;;;4.25;1.80;;;;;;;;;;5038899;28;20380;-62
2023/01/09 02:17:09;;;;;;;3.47;1.67;;;;;;;;;;5055455;22;20475;-63
2023/01/09 02:19:54;;;;;;;4.63;1.70;;;;;;;;;;5049138;28;20075;-64
2023/01/09 02:22:38;;;;;;;3.92;1.70;;;;;;;;;;5047526;28;20506;-64
2023/01/09 02:25:35;;;;;;;3.08;1.40;;;;;;;;;;5047618;28;20483;-64
2023/01/09 02:28:10;;;;;;;3.90;1.70;;;;;;;;;;5052820;28;20041;-64
2023/01/09 02:30:51;;;;;;;2.78;1.40;;;;;;;;;;5054807;28;20036;-64
2023/01/09 02:33:40;;;;;;;2.65;1.33;;;;;;;;;;5044932;28;20032;-64
2023/01/09 02:36:24;;;;;;;2.33;1.27;;;;;;;;;;5050396;28;20044;-64
2023/01/09 02:39:05;;;;;;;3.33;1.75;;;;;;;;;;5050753;28;20091;-64
2023/01/09 02:41:31;;;;;;;5.75;1.50;;;;;;;;;;5050274;28;20041;-64
2023/01/09 02:44:16;;;;;;;3.08;1.30;;;;;;;;;;5045948;28;20110;-64
2023/01/09 02:46:42;;;;;;;4.85;1.98;;;;;;;;;;5053784;28;20074;-64
2023/01/09 02:49:08;;;;;;;3.20;1.30;;;;;;;;;;5051996;28;20037;-64
2023/01/09 02:51:46;;;;;;;3.30;1.23;;;;;;;;;;5053466;28;20033;-63
2023/01/09 02:54:24;;;;;;;2.13;1.50;;;;;;;;;;5048030;28;20025;-64
2023/01/09 02:57:09;;;;;;;3.40;1.60;;;;;;;;;;5032928;28;20047;-64
2023/01/09 02:59:41;;;;;;;2.70;1.33;;;;;;;;;;5051394;28;20045;-64
2023/01/09 03:02:17;;;;;;;3.25;1.52;;;;;;;;;;5050199;28;20116;-64
2023/01/09 03:04:47;;;;;;;4.35;1.55;;;;;;;;;;5048455;28;20109;-64
2023/01/09 03:07:32;;;;;;;5.20;1.80;;;;;;;;;;5050654;28;20103;-64
2023/01/09 03:10:01;;;;;;;5.47;1.95;;;;;;;;;;5051096;28;20036;-64
2023/01/09 03:12:29;;;;;;;3.33;1.73;;;;;;;;;;5029190;28;20414;-64
2023/01/09 03:14:56;;;;;;;4.25;1.80;;;;;;;;;;5051247;28;20041;-64
2023/01/09 03:17:31;;;;;;;5.60;1.98;;;;;;;;;;5048966;28;20049;-64
2023/01/09 03:19:59;;;;;;;5.30;1.63;;;;;;;;;;5050980;28;20053;-64
2023/01/09 03:22:24;;;;;;;6.88;2.05;;;;;;;;;;5028193;28;20402;-64
2023/01/09 03:24:50;;;;;;;3.58;1.80;;;;;;;;;;5049451;28;20041;-63
2023/01/09 03:27:17;;;;;;;3.78;1.90;;;;;;;;;;5051387;28;20048;-64
2023/01/09 03:29:43;;;;;;;4.45;1.77;;;;;;;;;;5053494;28;20072;-63
2023/01/09 03:32:08;;;;;;;3.83;2.28;;;;;;;;;;5050307;28;20068;-64
2023/01/09 03:34:34;;;;;;;5.32;2.30;;;;;;;;;;5051809;28;20033;-64
2023/01/09 03:37:01;;;;;;;3.50;2.40;;;;;;;;;;5034177;28;20056;-64
2023/01/09 03:39:28;;;;;;;4.70;2.25;;;;;;;;;;5052014;28;20044;-64
2023/01/09 03:41:54;;;;;;;4.70;2.03;;;;;;;;;;5050035;28;20041;-64
2023/01/09 03:44:20;;;;;;;4.35;2.65;;;;;;;;;;5048188;28;20048;-63
2023/01/09 03:46:46;;;;;;;4.82;2.33;;;;;;;;;;5050860;28;20041;-63
2023/01/09 03:49:12;;;;;;;3.65;2.15;;;;;;;;;;5051868;28;20037;-63
2023/01/09 03:51:38;;;;;;;5.28;2.35;;;;;;;;;;5033750;28;20045;-63
2023/01/09 03:54:04;;;;;;;4.95;2.55;;;;;;;;;;5035457;28;20073;-63
2023/01/09 03:56:30;;;;;;;8.10;3.15;;;;;;;;;;5053234;28;20083;-63
2023/01/09 03:58:56;;;;;;;8.93;3.47;;;;;;;;;;5050887;28;20037;-64
2023/01/09 04:01:22;;;;;;;7.00;2.90;;;;;;;;;;5051913;28;20037;-63
2023/01/09 04:03:48;;;;;;;6.20;2.97;;;;;;;;;;5051133;28;20045;-63
2023/01/09 04:06:14;;;;;;;7.07;3.30;;;;;;;;;;5053189;28;20073;-63
2023/01/09 04:08:40;;;;;;;7.30;3.50;;;;;;;;;;5052126;28;20090;-63
2023/01/09 04:11:06;;;;;;;8.80;3.20;;;;;;;;;;5033285;28;20039;-64
2023/01/09 04:13:32;;;;;;;6.72;3.13;;;;;;;;;;5051800;28;20071;-63
2023/01/09 04:15:58;;;;;;;5.72;3.88;;;;;;;;;;5032366;28;20065;-63
2023/01/09 04:18:24;;;;;;;9.10;4.60;;;;;;;;;;5050444;28;20037;-63
2023/01/09 04:20:50;;;;;;;8.82;5.03;;;;;;;;;;5053297;28;20036;-63
2023/01/09 04:23:16;;;;;;;9.60;4.70;;;;;;;;;;5050852;28;20619;-63
2023/01/09 04:25:42;;;;;;;10.93;5.40;;;;;;;;;;5050518;28;20392;-63
2023/01/09 04:28:08;;;;;;;9.57;5.22;;;;;;;;;;5043011;28;20052;-63
2023/01/09 04:30:34;;;;;;;8.48;5.18;;;;;;;;;;5052809;28;20041;-63
2023/01/09 04:33:00;;;;;;;12.10;5.80;;;;;;;;;;5044827;28;20037;-63
2023/01/09 04:35:26;;;;;;;11.45;6.40;;;;;;;;;;5051396;28;20124;-63
2023/01/09 04:37:52;;;;;;;11.38;6.38;;;;;;;;;;5042620;28;20486;-63
2023/01/09 04:40:19;;;;;;;11.27;6.93;;;;;;;;;;5052606;28;20040;-63
2023/01/09 04:42:45;;;;;;;12.00;6.38;;;;;;;;;;5050091;28;20124;-63
2023/01/09 04:45:13;;;;;;;10.80;6.47;;;;;;;;;;5050614;28;20516;-63
2023/01/09 04:47:39;;;;;;;13.82;7.40;;;;;;;;;;5048784;28;20373;-63
2023/01/09 04:50:05;;;;;;;12.68;7.65;;;;;;;;;;5052291;28;20548;-63
2023/01/09 04:52:31;;;;;;;13.90;7.28;;;;;;;;;;5042472;28;20407;-63
2023/01/09 04:54:57;;;;;;;12.85;6.80;;;;;;;;;;5050977;28;20132;-63
2023/01/09 04:57:23;;;;;;;12.68;7.47;;;;;;;;;;5045739;28;20041;-63
2023/01/09 04:59:49;;;;;;;14.02;7.53;;;;;;;;;;5050490;28;20044;-63
2023/01/09 05:02:15;;;;;;;15.52;8.10;;;;;;;;;;5041177;28;20041;-63
2023/01/09 05:04:41;;;;;;;15.43;7.97;;;;;;;;;;5048329;28;20406;-63
2023/01/09 05:07:07;;;;;;;13.07;8.05;;;;;;;;;;5046715;28;20044;-63
2023/01/09 05:09:33;;;;;;;16.70;7.68;;;;;;;;;;5050063;28;20551;-63
2023/01/09 05:11:59;;;;;;;13.57;7.57;;;;;;;;;;5042744;28;20116;-63
2023/01/09 05:14:25;;;;;;;14.40;7.60;;;;;;;;;;5050538;28;20037;-63
2023/01/09 05:16:51;;;;;;;12.63;7.22;;;;;;;;;;5050107;28;20521;-63
2023/01/09 05:19:17;;;;;;;14.70;8.60;;;;;;;;;;5047384;28;20041;-64
2023/01/09 05:21:43;;;;;;;13.45;7.68;;;;;;;;;;5048760;28;20041;-63
2023/01/09 05:24:09;;;;;;;12.38;6.93;;;;;;;;;;5048610;28;20043;-63
2023/01/09 05:26:35;;;;;;;11.98;7.40;;;;;;;;;;5050009;28;20045;-63
2023/01/09 05:29:01;;;;;;;11.73;6.53;;;;;;;;;;5050169;28;20033;-63
2023/01/09 05:31:27;;;;;;;12.20;6.15;;;;;;;;;;5048287;28;20040;-63
2023/01/09 05:33:53;;;;;;;11.77;6.55;;;;;;;;;;5045841;28;20390;-64
2023/01/09 05:36:19;;;;;;;11.32;5.15;;;;;;;;;;5048288;28;20069;-63
2023/01/09 05:38:45;;;;;;;10.27;6.10;;;;;;;;;;5047495;28;20548;-63
2023/01/09 05:41:11;;;;;;;15.77;6.78;;;;;;;;;;5051263;28;20037;-63
2023/01/09 05:43:37;;;;;;;12.30;6.30;;;;;;;;;;5036892;28;20056;-63
2023/01/09 05:46:03;;;;;;;10.48;5.95;;;;;;;;;;5031354;28;20116;-63
2023/01/09 05:48:29;;;;;;;11.98;6.50;;;;;;;;;;5046344;28;20033;-63
2023/01/09 05:50:55;;;;;;;11.65;6.18;;;;;;;;;;5050985;28;20099;-63
2023/01/09 05:53:21;;;;;;;9.70;5.18;;;;;;;;;;5050056;28;20036;-63
2023/01/09 05:55:47;;;;;;;13.70;6.45;;;;;;;;;;5049443;28;20161;-63
2023/01/09 05:58:13;;;;;;;10.05;5.82;;;;;;;;;;5031840;28;20049;-63
2023/01/09 06:00:39;;;;;;;11.82;5.75;;;;;;;;;;5050574;28;20041;-63
2023/01/09 06:03:05;;;;;;;8.20;5.35;;;;;;;;;;5054785;28;20048;-63
2023/01/09 06:05:32;;;;;;;11.68;6.75;;;;;;;;;;5054297;28;20119;-63
2023/01/09 06:07:58;;;;;;;13.63;6.35;;;;;;;;;;5053304;28;20040;-63
2023/01/09 06:10:24;;;;;;;8.88;5.65;;;;;;;;;;5054963;28;20082;-64
2023/01/09 06:12:52;;;;;;;13.52;5.90;;;;;;;;;;5052813;28;20112;-63
2023/01/09 06:15:19;;;;;;;9.55;5.90;;;;;;;;;;5046880;28;20039;-63
2023/01/09 06:17:45;;;;;;;10.65;6.05;;;;;;;;;;5053038;28;20114;-64
2023/01/09 06:20:11;;;;;;;11.77;5.55;;;;;;;;;;5054838;28;20116;-63
2023/01/09 06:22:37;;;;;;;11.90;5.65;;;;;;;;;;5055180;28;20445;-63
2023/01/09 06:25:03;;;;;;;9.35;4.97;;;;;;;;;;5035453;28;20130;-63
2023/01/09 06:27:30;;;;;;;10.57;5.03;;;;;;;;;;5047997;28;20072;-63
2023/01/09 06:29:56;;;;;;;10.43;5.45;;;;;;;;;;5035860;28;20112;-63
2023/01/09 06:32:22;;;;;;;8.63;5.25;;;;;;;;;;5053609;28;20033;-63
2023/01/09 06:34:48;;;;;;;10.45;4.97;;;;;;;;;;5046144;28;20495;-63
2023/01/09 06:37:14;;;;;;;10.88;5.70;;;;;;;;;;5045859;28;20099;-63
2023/01/09 06:39:39;;;;;;;9.00;4.97;;;;;;;;;;5051500;28;20384;-63
2023/01/09 06:42:06;;;;;;;11.20;5.20;;;;;;;;;;5052258;28;20043;-63
2023/01/09 06:44:32;;;;;;;10.23;4.82;;;;;;;;;;5054618;28;20055;-63
2023/01/09 06:46:58;;;;;;;8.48;4.78;;;;;;;;;;5052614;28;20045;-63
2023/01/09 06:49:24;;;;;;;7.03;4.45;;;;;;;;;;5051944;28;20064;-63
2023/01/09 06:51:50;;;;;;;9.68;4.80;;;;;;;;;;5053776;28;20079;-64
2023/01/09 06:54:17;;;;;;;8.13;4.90;;;;;;;;;;5054435;28;20033;-63
2023/01/09 06:56:43;;;;;;;10.10;4.88;;;;;;;;;;5051329;28;20090;-63
2023/01/09 06:59:09;;;;;;;8.65;4.15;;;;;;;;;;5033221;28;20045;-63
2023/01/09 07:01:35;;;;;;;9.25;4.63;;;;;;;;;;5034667;28;20053;-63
2023/01/09 07:04:01;;;;;;;10.13;4.45;;;;;;;;;;5049391;28;20143;-63
2023/01/09 07:06:27;;;;;;;8.70;4.35;;;;;;;;;;5051779;28;20052;-63
2023/01/09 07:08:53;;;;;;;7.95;3.65;;;;;;;;;;5053323;28;20091;-63
2023/01/09 07:11:19;;;;;;;7.57;3.90;;;;;;;;;;5047393;28;20099;-63
2023/01/09 07:13:45;;;;;;;9.00;3.60;;;;;;;;;;5051685;28;20041;-63
2023/01/09 07:16:11;;;;;;;10.30;4.30;;;;;;;;;;5049919;28;20120;-63
2023/01/09 07:18:37;;;;;;;6.03;3.38;;;;;;;;;;5051106;28;20112;-63
2023/01/09 07:21:05;;;;;;;9.25;3.50;;;;;;;;;;5053088;28;20491;-63
2023/01/09 07:23:31;;;;;;;6.93;3.60;;;;;;;;;;5032630;28;20502;-63
2023/01/09 07:25:57;;;;;;;7.30;3.80;;;;;;;;;;5033633;28;20108;-63
2023/01/09 07:28:23;;;;;;;6.97;3.13;;;;;;;;;;5053875;28;20052;-63
2023/01/09 07:30:49;;;;;;;9.85;3.83;;;;;;;;;;5048034;28;20414;-64
2023/01/09 07:33:15;;;;;;;7.95;3.78;;;;;;;;;;5050185;28;20513;-64
2023/01/09 07:35:42;;;;;;;5.80;3.40;;;;;;;;;;5051289;28;20041;-64
2023/01/09 07:38:08;;;;;;;5.97;4.03;;;;;;;;;;5052359;28;20040;-63
2023/01/09 07:40:34;;;;;;;9.32;3.40;;;;;;;;;;5049898;28;20485;-63
2023/01/09 07:43:00;;;;;;;7.50;3.85;;;;;;;;;;5049905;28;20055;-63
2023/01/09 07:45:26;;;;;;;8.70;3.80;;;;;;;;;;5048891;28;20486;-64
2023/01/09 07:47:52;;;;;;;7.47;3.60;;;;;;;;;;5050594;28;20047;-63
2023/01/09 07:50:18;;;;;;;5.30;3.15;;;;;;;;;;5051222;28;20045;-63
2023/01/09 07:52:47;;;;;;;9.73;3.80;;;;;;;;;;5050952;28;20511;-63
2023/01/09 07:55:13;;;;;;;8.45;3.58;;;;;;;;;;5051377;28;20651;-63
2023/01/09 07:57:39;;;;;;;10.25;3.45;;;;;;;;;;5036247;28;20138;-63
2023/01/09 08:00:07;;;;;;;7.93;3.22;;;;;;;;;;5048840;28;20044;-63
2023/01/09 08:02:33;;;;;;;6.93;3.40;;;;;;;;;;5050685;28;20043;-63
2023/01/09 08:04:59;;;;;;;6.60;3.42;;;;;;;;;;5050411;28;20116;-64
2023/01/09 08:07:25;;;;;;;8.68;3.25;;;;;;;;;;5049455;28;20051;-63
2023/01/09 08:09:51;;;;;;;8.95;3.65;;;;;;;;;;5048364;28;20128;-63
2023/01/09 08:12:17;;;;;;;5.80;3.10;;;;;;;;;;5048216;28;20119;-63
2023/01/09 08:14:43;;;;;;;7.90;2.95;;;;;;;;;;5051097;28;20426;-63
2023/01/09 08:17:10;;;;;;;12.55;3.42;;;;;;;;;;5065145;22;20044;-67
2023/01/09 08:19:36;;;;;;;6.95;2.92;;;;;;;;;;5065509;28;20394;-68
2023/01/09 08:22:02;;;;;;;9.82;3.05;;;;;;;;;;5058014;28;20037;-69
2023/01/09 08:24:29;;;;;;;7.13;3.30;;;;;;;;;;5067281;28;20502;-68
2023/01/09 08:26:55;;;;;;;14.57;3.72;;;;;;;;;;5059339;28;20068;-68
2023/01/09 08:29:21;;;;;;;12.30;4.55;;;;;;;;;;5049137;28;20037;-68
2023/01/09 08:31:47;;;;;;;8.20;3.05;;;;;;;;;;5052663;28;20044;-67
2023/01/09 08:34:13;;;;;;;5.90;2.88;;;;;;;;;;5050079;28;20037;-68
2023/01/09 08:36:39;;;;;;;10.57;3.67;;;;;;;;;;5042057;28;20411;-67
2023/01/09 08:39:05;;;;;;;8.30;3.05;;;;;;;;;;5043411;28;20033;-67
2023/01/09 08:47:04;;;;;;;7.97;3.35;;;;;;;;;;5032515;28;20056;-67
2023/01/09 08:49:30;;;;;;;6.18;3.45;;;;;;;;;;5042747;28;20041;-68
2023/01/09 08:51:56;;;;;;;10.20;3.60;;;;;;;;;;5048049;28;20047;-67
2023/01/09 08:54:22;;;;;;;7.93;3.35;;;;;;;;;;5039086;28;20124;-67
2023/01/09 08:56:48;;;;;;;6.80;3.15;;;;;;;;;;5039407;28;20051;-67
2023/01/09 08:59:15;;;;;;;11.45;3.65;;;;;;;;;;5038656;28;20041;-67
2023/01/09 09:01:41;;;;;;;8.35;3.22;;;;;;;;;;5034198;28;20402;-68
2023/01/09 09:04:07;;;;;;;13.57;3.42;;;;;;;;;;5044972;28;20495;-67
2023/01/09 09:06:33;;;;;;;8.73;3.92;;;;;;;;;;5039004;28;20069;-67
2023/01/09 09:09:05;;;;;;;9.00;3.85;;;;;;;;;;5040640;28;20061;-67
2023/01/09 09:11:32;;;;;;;6.82;3.40;;;;;;;;;;5033854;28;20076;-67
2023/01/09 09:13:58;;;;;;;8.25;3.80;;;;;;;;;;5035209;28;20533;-68
2023/01/09 09:16:24;;;;;;;8.68;3.65;;;;;;;;;;5050718;28;20044;-66
2023/01/09 09:18:50;;;;;;;6.70;4.10;;;;;;;;;;5047465;28;20123;-67
2023/01/09 09:21:16;;;;;;;8.00;3.30;;;;;;;;;;5035318;28;20425;-67
2023/01/09 09:23:45;;;;;;;9.32;4.03;;;;;;;;;;5049891;28;20041;-67
2023/01/09 09:26:11;;;;;;;12.23;4.13;;;;;;;;;;5051237;28;20199;-67
2023/01/09 09:28:37;;;;;;;11.35;3.53;;;;;;;;;;5045997;28;20047;-67
2023/01/09 09:31:06;;;;;;;11.23;3.55;;;;;;;;;;5046827;28;20056;-67
2023/01/09 09:33:33;;;;;;;9.90;3.33;;;;;;;;;;5031152;28;20042;-67
2023/01/09 09:35:59;;;;;;;6.68;3.38;;;;;;;;;;5043122;28;20045;-66
2023/01/09 09:38:25;;;;;;;8.23;3.35;;;;;;;;;;5041143;28;20071;-67
2023/01/09 09:44:52;;;;;;;9.52;3.80;;;;;;;;;;4988593;28;20049;-67
2023/01/09 09:47:25;;;;;;;9.18;3.67;;;;;;;;;;4973988;28;20129;-67
2023/01/09 09:49:51;;;;;;;6.40;3.28;;;;;;;;;;5048145;28;20434;-67
2023/01/09 09:52:17;;;;;;;7.80;3.20;;;;;;;;;;5036485;28;20144;-67
2023/01/09 09:54:47;;;;;;;8.35;3.63;;;;;;;;;;5047483;28;20599;-67
2023/01/09 09:57:15;;;;;;;10.10;3.80;;;;;;;;;;5049451;28;20045;-67
2023/01/09 09:59:42;;;;;;;8.13;3.25;;;;;;;;;;5040234;28;20042;-67
2023/01/09 10:02:08;;;;;;;9.50;3.47;;;;;;;;;;5045238;28;20043;-67
2023/01/09 10:04:36;;;;;;;7.57;3.28;;;;;;;;;;5031609;28;20033;-67
2023/01/09 10:07:08;;;;;;;9.52;3.38;;;;;;;;;;5032760;28;20082;-67
2023/01/09 10:09:43;;;;;;;9.43;3.40;;;;;;;;;;5038455;28;20502;-67
2023/01/09 10:12:25;;;;;;;7.75;3.15;;;;;;;;;;5029997;28;20448;-66
2023/01/09 10:14:51;;;;;;;9.35;2.88;;;;;;;;;;5040285;28;20049;-66
2023/01/09 10:17:27;;;;;;;6.20;3.33;;;;;;;;;;5035148;28;20565;-67
2023/01/09 10:19:59;;;;;;;11.07;3.78;;;;;;;;;;5039707;28;20071;-66
2023/01/09 10:22:37;;;;;;;6.72;2.80;;;;;;;;;;5036787;28;20044;-66
2023/01/09 10:25:12;;;;;;;6.10;3.28;;;;;;;;;;5048103;28;20371;-66
2023/01/09 10:27:57;;;;;;;9.52;3.42;;;;;;;;;;5041184;28;20071;-67
2023/01/09 10:30:26;;;;;;;8.35;3.08;;;;;;;;;;5042862;28;20038;-67
2023/01/09 10:32:55;;;;;;;9.98;3.40;;;;;;;;;;5037283;28;20091;-67
2023/01/09 10:35:21;;;;;;;7.43;2.92;;;;;;;;;;5047263;28;20231;-67
2023/01/09 10:37:52;;;;;;;6.03;3.30;;;;;;;;;;5039306;28;20499;-67
2023/01/09 10:40:38;;;;;;;4.07;2.67;;;;;;;;;;5043123;28;20115;-67
2023/01/09 10:43:06;;;;;;;7.60;3.35;;;;;;;;;;5029174;28;20480;-68
2023/01/09 10:45:40;;;;;;;5.55;3.40;;;;;;;;;;5041942;28;20398;-67
2023/01/09 10:48:14;;;;;;;7.72;2.63;;;;;;;;;;5038330;28;20067;-67
2023/01/09 10:50:41;;;;;;;6.28;2.72;;;;;;;;;;5043006;28;20422;-67
2023/01/09 10:53:20;;;;;;;5.82;2.95;;;;;;;;;;5044709;28;20072;-67
2023/01/09 10:55:46;;;;;;;5.95;2.75;;;;;;;;;;5030297;28;20037;-67
2023/01/09 10:58:12;;;;;;;8.05;3.03;;;;;;;;;;5044861;28;20045;-68
2023/01/09 11:00:39;;;;;;;5.55;3.17;;;;;;;;;;5036504;28;20415;-68
2023/01/09 11:03:06;;;;;;;6.82;3.08;;;;;;;;;;5051133;28;20037;-67
2023/01/09 11:05:32;;;;;;;6.35;2.72;;;;;;;;;;5048761;28;20123;-67
2023/01/09 11:08:08;;;;;;;8.25;3.58;;;;;;;;;;5048242;28;20080;-67
2023/01/09 11:10:45;;;;;;;7.47;3.67;;;;;;;;;;5033073;28;20524;-68
2023/01/09 11:13:18;;;;;;;5.53;3.40;;;;;;;;;;5038808;28;20052;-68
2023/01/09 11:15:44;;;;;;;5.65;3.65;;;;;;;;;;5051949;28;20064;-68
2023/01/09 11:18:18;;;;;;;4.40;2.97;;;;;;;;;;5045692;28;20502;-68
2023/01/09 11:20:44;;;;;;;5.70;3.38;;;;;;;;;;5049758;28;20454;-68
2023/01/09 11:23:30;;;;;;;7.05;3.70;;;;;;;;;;5046192;28;20086;-68
2023/01/09 11:25:58;;;;;;;6.18;3.80;;;;;;;;;;5043449;28;20124;-68
2023/01/09 11:28:24;;;;;;;17.60;4.38;;;;;;;;;;5043967;28;20056;-67
2023/01/09 11:30:54;;;;;;;7.35;3.88;;;;;;;;;;5052852;28;20041;-67
2023/01/09 11:33:23;;;;;;;8.00;4.28;;;;;;;;;;5052405;28;20106;-68
2023/01/09 11:35:58;;;;;;;6.32;4.45;;;;;;;;;;5043058;28;20036;-69
2023/01/09 11:38:24;;;;;;;8.98;4.75;;;;;;;;;;5037374;28;20499;-68
2023/01/09 11:40:52;;;;;;;9.52;4.70;;;;;;;;;;5042854;28;20083;-68
2023/01/09 11:43:24;;;;;;;8.32;5.18;;;;;;;;;;5041638;28;20044;-68
2023/01/09 11:45:55;;;;;;;10.85;6.72;;;;;;;;;;5038221;28;20079;-68
2023/01/09 11:48:41;;;;;;;10.07;5.38;;;;;;;;;;5046742;28;20482;-68
2023/01/09 11:51:18;;;;;;;9.20;4.95;;;;;;;;;;5039394;28;20124;-69
2023/01/09 11:54:07;;;;;;;8.90;5.38;;;;;;;;;;5038617;28;20495;-68
2023/01/09 11:56:34;;;;;;;8.80;5.30;;;;;;;;;;5026438;28;20057;-69
2023/01/09 11:59:00;;;;;;;16.40;7.13;;;;;;;;;;5050385;28;20049;-68
2023/01/09 12:01:39;;;;;;;12.25;6.18;;;;;;;;;;5035290;28;20095;-68
2023/01/09 12:04:10;;;;;;;9.18;6.13;;;;;;;;;;5037309;28;20038;-68
2023/01/09 12:06:36;;;;;;;9.05;5.93;;;;;;;;;;5041496;28;20049;-68
2023/01/09 12:09:03;;;;;;;14.45;6.32;;;;;;;;;;5051732;28;20071;-68
2023/01/09 12:11:34;;;;;;;11.73;6.38;;;;;;;;;;5050836;28;20128;-68
2023/01/09 12:14:03;;;;;;;11.52;6.45;;;;;;;;;;5043114;28;20136;-68
2023/01/09 12:16:36;;;;;;;10.85;7.00;;;;;;;;;;5048773;28;20033;-68
2023/01/09 12:19:21;;;;;;;14.30;7.50;;;;;;;;;;5043369;28;20093;-67
2023/01/09 12:22:01;;;;;;;13.63;7.20;;;;;;;;;;5051222;28;20044;-68
2023/01/09 12:24:35;;;;;;;12.98;7.53;;;;;;;;;;5047057;28;20048;-69
2023/01/09 12:27:04;;;;;;;13.48;7.50;;;;;;;;;;5041824;28;20051;-68
2023/01/09 12:29:36;;;;;;;13.65;7.63;;;;;;;;;;5048395;28;20072;-68
2023/01/09 12:32:18;;;;;;;12.98;7.53;;;;;;;;;;5045327;28;20065;-69
2023/01/09 12:34:59;;;;;;;15.15;8.25;;;;;;;;;;5030913;28;20040;-68
2023/01/09 12:37:28;;;;;;;19.38;8.45;;;;;;;;;;5027387;28;20128;-69
2023/01/09 12:40:13;;;;;;;12.93;8.02;;;;;;;;;;5050109;28;20048;-68
2023/01/09 12:42:57;;;;;;;16.42;8.55;;;;;;;;;;5044099;28;20055;-68
2023/01/09 12:45:23;;;;;;;13.70;8.60;;;;;;;;;;5031981;28;20052;-69
2023/01/09 12:47:51;;;;;;;12.40;7.43;;;;;;;;;;5042172;28;20415;-69
2023/01/09 12:50:31;;;;;;;14.50;8.70;;;;;;;;;;5048542;28;20045;-68
2023/01/09 12:53:00;;;;;;;17.85;8.82;;;;;;;;;;5021608;28;20078;-68
2023/01/09 12:55:29;;;;;;;13.75;9.10;;;;;;;;;;5044247;28;20501;-68
2023/01/09 12:57:57;;;;;;;15.68;8.98;;;;;;;;;;5042888;28;20045;-68
2023/01/09 13:00:25;;;;;;;16.00;9.30;;;;;;;;;;5047262;28;20399;-69
2023/01/09 13:02:56;;;;;;;15.88;9.10;;;;;;;;;;5040197;28;20084;-68
2023/01/09 13:05:31;;;;;;;14.97;9.40;;;;;;;;;;5029199;28;20086;-68
2023/01/09 13:08:16;;;;;;;17.95;9.55;;;;;;;;;;5043886;28;20910;-68
2023/01/09 13:10:44;;;;;;;16.10;9.20;;;;;;;;;;5037169;28;20133;-68
2023/01/09 13:13:34;;;;;;;15.68;8.75;;;;;;;;;;5044651;28;20028;-68
2023/01/09 13:16:10;;;;;;;19.88;9.93;;;;;;;;;;5028981;28;20052;-68
2023/01/09 13:18:42;;;;;;;21.67;10.30;;;;;;;;;;5036551;28;20060;-68
2023/01/09 13:21:08;;;;;;;20.92;9.48;;;;;;;;;;5043446;28;20044;-68
2023/01/09 13:23:53;;;;;;;19.17;9.80;;;;;;;;;;5040908;28;20049;-68
2023/01/09 13:26:19;;;;;;;20.60;9.82;;;;;;;;;;5051821;28;20048;-68
2023/01/09 13:28:47;;;;;;;17.63;9.77;;;;;;;;;;5046572;28;20045;-68
2023/01/09 13:31:32;;;;;;;20.85;9.02;;;;;;;;;;5039431;28;20041;-68
2023/01/09 13:33:58;;;;;;;17.65;9.23;;;;;;;;;;5040315;28;20049;-68
2023/01/09 13:36:29;;;;;;;21.13;9.27;;;;;;;;;;5040814;28;20033;-69
2023/01/09 13:38:56;;;;;;;20.88;9.55;;;;;;;;;;5042564;28;20045;-69
2023/01/09 13:44:27;;;;;;;20.20;9.05;;;;;;;;;;5064223;28;20045;-69
2023/01/09 13:46:57;;;;;;;16.77;8.48;;;;;;;;;;5042431;28;20072;-69
2023/01/09 13:49:41;;;;;;;14.80;8.97;;;;;;;;;;5040753;28;20041;-69
2023/01/09 13:52:26;;;;;;;19.15;8.23;;;;;;;;;;5040569;28;20045;-69
2023/01/09 13:54:57;;;;;;;18.70;8.73;;;;;;;;;;5027453;28;20036;-69
2023/01/09 13:57:33;;;;;;;16.77;8.23;;;;;;;;;;5034559;28;20139;-68
2023/01/09 14:00:20;;;;;;;17.17;7.95;;;;;;;;;;5038906;28;20302;-68
2023/01/09 14:02:47;;;;;;;14.00;8.32;;;;;;;;;;5015709;28;20064;-68
2023/01/09 14:05:13;;;;;;;15.73;8.43;;;;;;;;;;5049065;28;20110;-68
2023/01/09 14:07:50;;;;;;;21.98;7.97;;;;;;;;;;5036150;28;20045;-68
2023/01/09 14:10:22;;;;;;;21.38;8.23;;;;;;;;;;5048667;28;20040;-68
2023/01/09 14:12:49;;;;;;;18.17;7.63;;;;;;;;;;5044342;28;20128;-68
2023/01/09 14:15:34;;;;;;;17.95;7.43;;;;;;;;;;5046670;28;20509;-68
2023/01/09 14:18:01;;;;;;;15.18;6.93;;;;;;;;;;5046676;22;20040;-62
2023/01/09 14:20:31;;;;;;;14.77;5.95;;;;;;;;;;5009802;28;20045;-62
2023/01/09 14:22:59;;;;;;;13.77;6.65;;;;;;;;;;5027095;28;20673;-63
2023/01/09 14:25:27;;;;;;;15.25;5.30;;;;;;;;;;5026552;28;20049;-62
2023/01/09 14:27:53;;;;;;;12.68;4.93;;;;;;;;;;5026327;28;20034;-62
2023/01/09 14:30:25;;;;;;;15.90;5.60;;;;;;;;;;5029403;28;20099;-61
2023/01/09 14:32:55;;;;;;;12.48;4.18;;;;;;;;;;5024100;28;20040;-62
2023/01/09 14:35:31;;;;;;;14.45;4.63;;;;;;;;;;5015087;28;20100;-62
2023/01/09 14:38:16;;;;;;;13.25;4.50;;;;;;;;;;5015237;28;20092;-62
2023/01/09 14:41:00;;;;;;;10.65;4.47;;;;;;;;;;5014403;28;20045;-62
2023/01/09 14:43:47;;;;;;;14.60;4.07;;;;;;;;;;5015081;28;20446;-61
2023/01/09 14:46:15;;;;;;;11.48;3.38;;;;;;;;;;5014215;28;20045;-62
2023/01/09 14:48:48;;;;;;;18.70;3.80;;;;;;;;;;5015339;28;20049;-62
2023/01/09 14:51:15;;;;;;;12.68;3.75;;;;;;;;;;5015282;28;20033;-62
2023/01/09 14:53:42;;;;;;;13.88;3.80;;;;;;;;;;5014560;28;20121;-62
2023/01/09 14:56:23;;;;;;;11.05;3.83;;;;;;;;;;5020710;28;20495;-62
2023/01/09 14:58:51;;;;;;;12.07;3.50;;;;;;;;;;5014465;28;20042;-62
2023/01/09 15:01:19;;;;;;;8.63;3.75;;;;;;;;;;5014321;28;20042;-62
2023/01/09 15:03:50;;;;;;;19.15;4.22;;;;;;;;;;5022290;28;20041;-62
2023/01/09 15:06:19;;;;;;;10.88;3.08;;;;;;;;;;5034281;28;20076;-62